Terminal Aerodrome Forecast
Issued by NWS Fort Wayne, IN

Home | Current Version | Previous Version | Graphics & Text | Print | Product List | Glossary On
Versions: 1 2 3 4 5 6 7 8 9 10 11 12 13 14 15 16 17 18 19 20 21 22
000
FTUS43 KIWX 060200 AAB
TAFFWA
TAF AMD
KFWA 060259Z 0603/0624 07012KT 3SM BR OVC006
     FM060500 07005KT 3SM BR SCT030 BKN200
     FM060800 VRB03KT 3SM BR BKN035
      TEMPO 0609/0613 1SM BR
     FM061500 24005KT P6SM BKN050=

USA.gov is the U.S. government's official web portal to all federal, state and local government web resources and services.